Time;durP1;ratioP1;P1;durP2;ratioP2;P2;SDS_P1;SDS_P2;PMS_P1;PMS_P2;Temp;Humidity;BMP_temperature;BMP_pressure;BME280_temperature;BME280_humidity;BME280_pressure;Samples;Min_cycle;Max_cycle;Signal;HPM_P1;HPM_P2
2023/04/29 00:01:18;;;;;;;10.20;5.25;;;12.60;81.70;;;;;;5009940;28;20560;-74
2023/04/29 00:03:44;;;;;;;11.18;5.85;;;12.60;81.70;;;;;;4990939;28;20084;-74
2023/04/29 00:06:10;;;;;;;10.70;5.65;;;12.60;81.70;;;;;;5010791;28;20029;-70
2023/04/29 00:08:36;;;;;;;8.63;5.28;;;12.60;81.60;;;;;;5011053;28;20685;-70
2023/04/29 00:11:02;;;;;;;9.25;5.65;;;12.60;81.70;;;;;;4993872;28;20115;-70
2023/04/29 00:13:28;;;;;;;8.05;5.38;;;12.60;81.70;;;;;;5008073;28;20069;-70
2023/04/29 00:15:54;;;;;;;8.20;4.97;;;12.60;81.70;;;;;;5010350;28;20040;-70
2023/04/29 00:18:19;;;;;;;11.10;5.40;;;12.60;81.80;;;;;;5007301;28;20030;-71
2023/04/29 00:20:45;;;;;;;11.40;5.72;;;12.60;81.90;;;;;;4991569;28;20385;-70
2023/04/29 00:23:11;;;;;;;11.88;5.80;;;12.50;81.90;;;;;;4991647;28;20225;-71
2023/04/29 00:25:37;;;;;;;10.00;6.43;;;12.60;82.00;;;;;;5010784;28;20497;-71
2023/04/29 00:28:04;;;;;;;10.00;5.22;;;12.50;82.10;;;;;;4990559;28;20489;-70
2023/04/29 00:30:32;;;;;;;11.23;7.00;;;12.50;82.30;;;;;;5008008;28;20034;-70
2023/04/29 00:32:58;;;;;;;13.13;6.55;;;12.40;82.30;;;;;;5001996;28;20468;-70
2023/04/29 00:35:23;;;;;;;10.80;6.05;;;12.40;82.50;;;;;;4987978;28;20075;-72
2023/04/29 00:37:49;;;;;;;9.60;5.97;;;12.40;82.70;;;;;;5010271;28;20065;-70
2023/04/29 00:40:16;;;;;;;10.13;4.97;;;12.40;82.70;;;;;;4988025;28;20532;-73
2023/04/29 00:42:42;;;;;;;8.77;4.95;;;12.40;82.80;;;;;;5004901;28;20020;-73
2023/04/29 00:45:10;;;;;;;10.88;5.63;;;12.40;82.70;;;;;;5009289;28;20061;-70
2023/04/29 00:47:36;;;;;;;10.23;5.05;;;12.40;82.90;;;;;;4990266;28;20030;-70
2023/04/29 00:50:02;;;;;;;7.28;4.53;;;12.40;82.90;;;;;;5010325;28;20531;-70
2023/04/29 00:52:33;;;;;;;10.32;4.68;;;12.40;82.90;;;;;;5009257;28;20380;-71
2023/04/29 00:54:59;;;;;;;10.07;5.13;;;12.30;83.00;;;;;;5009551;28;20667;-71
2023/04/29 00:57:29;;;;;;;10.90;5.55;;;12.40;83.00;;;;;;5003823;28;20108;-71
2023/04/29 00:59:58;;;;;;;9.18;4.90;;;12.40;83.00;;;;;;5005823;28;20038;-71
2023/04/29 01:02:25;;;;;;;13.30;6.35;;;12.40;83.00;;;;;;4989452;28;20034;-73
2023/04/29 01:04:51;;;;;;;7.22;4.30;;;12.30;83.00;;;;;;4990266;28;20040;-73
2023/04/29 01:07:26;;;;;;;9.48;5.85;;;12.30;83.10;;;;;;5007958;28;20038;-74
2023/04/29 01:10:39;;;;;;;9.30;5.05;;;12.30;83.20;;;;;;5008129;28;20367;-73
2023/04/29 01:13:44;;;;;;;10.35;5.53;;;12.30;83.10;;;;;;4942894;28;20513;-73
2023/04/29 01:16:14;;;;;;;12.63;5.47;;;12.30;83.30;;;;;;4988033;28;20053;-71
2023/04/29 01:18:48;;;;;;;10.40;5.28;;;12.30;83.60;;;;;;5006332;28;20034;-73
2023/04/29 01:21:14;;;;;;;13.23;5.22;;;12.30;83.50;;;;;;4990628;28;20112;-70
2023/04/29 01:23:40;;;;;;;7.78;5.45;;;12.30;83.40;;;;;;5008631;28;20529;-70
2023/04/29 01:26:07;;;;;;;12.57;6.03;;;12.40;83.30;;;;;;5009654;28;20231;-71
2023/04/29 01:28:38;;;;;;;8.32;4.95;;;12.40;83.20;;;;;;4972835;28;20465;-70
2023/04/29 01:31:07;;;;;;;8.47;4.80;;;12.40;83.20;;;;;;5009858;28;20092;-70
2023/04/29 01:33:42;;;;;;;10.75;5.05;;;12.40;83.10;;;;;;5000356;28;20508;-71
2023/04/29 01:36:45;;;;;;;9.38;4.60;;;12.40;83.00;;;;;;4999883;28;20065;-74
2023/04/29 01:39:37;;;;;;;10.50;5.82;;;12.40;83.00;;;;;;4998638;28;20125;-70
2023/04/29 01:42:22;;;;;;;;;;;12.40;83.10;;;;;;5000667;28;20209;-70
2023/04/29 01:44:50;;;;;;;13.27;6.63;;;12.30;83.30;;;;;;5003070;28;20380;-73
2023/04/29 01:47:17;;;;;;;10.07;5.13;;;12.30;83.30;;;;;;4981569;28;20034;-70
2023/04/29 01:49:45;;;;;;;7.25;4.18;;;12.30;83.40;;;;;;4990833;28;20409;-70
2023/04/29 01:52:11;;;;;;;8.32;5.43;;;12.20;83.30;;;;;;5009186;28;20366;-70
2023/04/29 01:54:37;;;;;;;13.40;5.43;;;12.30;83.40;;;;;;4991519;28;20032;-71
2023/04/29 01:57:03;;;;;;;10.43;4.78;;;12.30;83.30;;;;;;4978593;28;20033;-70
2023/04/29 01:59:29;;;;;;;11.63;4.93;;;12.30;83.40;;;;;;5003773;28;20477;-71
2023/04/29 02:01:58;;;;;;;10.18;4.32;;;12.20;83.30;;;;;;5009908;28;20026;-70
2023/04/29 02:04:24;;;;;;;6.93;4.80;;;12.30;83.30;;;;;;5007090;28;20533;-70
2023/04/29 02:06:53;;;;;;;7.43;3.67;;;12.30;83.20;;;;;;4990801;28;20484;-70
2023/04/29 02:09:19;;;;;;;14.50;5.57;;;12.30;83.20;;;;;;5003460;28;20476;-70
2023/04/29 02:11:44;;;;;;;8.10;4.85;;;12.30;83.10;;;;;;4989836;28;20556;-71
2023/04/29 02:14:11;;;;;;;9.15;3.83;;;12.30;83.20;;;;;;4985861;28;20037;-70
2023/04/29 02:16:37;;;;;;;6.13;4.40;;;12.30;83.20;;;;;;5007215;28;20046;-71
2023/04/29 02:19:02;;;;;;;8.60;4.28;;;12.30;83.20;;;;;;5012359;28;20033;-74
2023/04/29 02:21:28;;;;;;;6.78;3.90;;;12.30;83.20;;;;;;4993881;28;20034;-74
2023/04/29 02:23:54;;;;;;;9.00;5.05;;;12.30;83.10;;;;;;4993779;28;20083;-74
2023/04/29 02:26:20;;;;;;;9.93;4.07;;;12.30;83.10;;;;;;5010835;28;20400;-72
2023/04/29 02:28:46;;;;;;;6.22;4.18;;;12.30;83.10;;;;;;5010861;28;20533;-71
2023/04/29 02:31:12;;;;;;;7.18;3.60;;;12.20;83.00;;;;;;5010333;28;20053;-71
2023/04/29 02:33:38;;;;;;;8.30;4.28;;;12.30;83.00;;;;;;5011459;28;20049;-72
2023/04/29 02:36:04;;;;;;;6.25;3.45;;;12.30;83.50;;;;;;5011575;28;20100;-72
2023/04/29 02:38:30;;;;;;;9.55;3.92;;;12.30;82.80;;;;;;4994205;28;20060;-72
2023/04/29 02:40:56;;;;;;;7.35;3.63;;;12.40;82.60;;;;;;5009748;28;20040;-71
2023/04/29 02:43:22;;;;;;;9.05;3.28;;;12.40;82.60;;;;;;4993420;28;20442;-71
2023/04/29 02:45:47;;;;;;;7.60;3.92;;;12.40;82.50;;;;;;4991136;28;20025;-71
2023/04/29 02:48:13;;;;;;;6.97;4.20;;;12.30;82.40;;;;;;4994260;28;20393;-71
2023/04/29 02:50:39;;;;;;;5.80;3.38;;;12.30;82.50;;;;;;4991561;28;20117;-71
2023/04/29 02:53:04;;;;;;;6.70;3.95;;;12.30;82.60;;;;;;4992720;28;20095;-71
2023/04/29 02:55:30;;;;;;;7.40;4.50;;;12.30;82.60;;;;;;5008964;28;20030;-71
2023/04/29 02:57:56;;;;;;;6.63;3.88;;;12.20;82.70;;;;;;5009733;28;20087;-71
2023/04/29 03:00:22;;;;;;;7.45;3.85;;;12.20;82.80;;;;;;5010493;28;20022;-71
2023/04/29 03:02:48;;;;;;;6.70;4.13;;;12.20;82.90;;;;;;5008684;28;20037;-72
2023/04/29 03:05:14;;;;;;;7.72;5.53;;;12.20;82.80;;;;;;5011170;28;20034;-71
2023/04/29 03:07:40;;;;;;;5.40;3.30;;;12.20;82.80;;;;;;4991091;28;20029;-71
2023/04/29 03:10:06;;;;;;;11.02;5.03;;;12.20;82.80;;;;;;5009100;28;20033;-71
2023/04/29 03:12:32;;;;;;;8.02;4.13;;;12.20;82.80;;;;;;5008658;28;20029;-74
2023/04/29 03:14:58;;;;;;;8.45;3.88;;;12.20;82.90;;;;;;5011942;28;20022;-72
2023/04/29 03:17:24;;;;;;;6.78;3.33;;;12.20;82.90;;;;;;4991967;28;20064;-71
2023/04/29 03:19:51;;;;;;;5.72;3.58;;;12.20;82.90;;;;;;5010306;28;20382;-72
2023/04/29 03:22:17;;;;;;;7.80;3.72;;;12.20;82.90;;;;;;5009729;28;20030;-72
2023/04/29 03:24:43;;;;;;;7.38;4.18;;;12.20;82.90;;;;;;5009901;28;20042;-72
2023/04/29 03:27:10;;;;;;;7.43;4.32;;;12.20;82.80;;;;;;5009164;28;20058;-71
2023/04/29 03:29:35;;;;;;;7.47;3.60;;;12.20;82.80;;;;;;5008404;28;20359;-72
2023/04/29 03:32:01;;;;;;;9.20;4.90;;;12.20;82.90;;;;;;5010959;28;20034;-71
2023/04/29 03:34:27;;;;;;;6.35;3.63;;;12.20;82.90;;;;;;4987627;28;20092;-71
2023/04/29 03:36:53;;;;;;;8.32;3.80;;;12.20;82.90;;;;;;5008256;28;20436;-71
2023/04/29 03:39:19;;;;;;;7.28;4.30;;;12.20;82.80;;;;;;4988150;28;20045;-71
2023/04/29 03:41:46;;;;;;;6.57;3.30;;;12.20;82.80;;;;;;4990193;28;20556;-74
2023/04/29 03:44:12;;;;;;;7.47;3.60;;;12.20;82.80;;;;;;4990708;28;20069;-71
2023/04/29 03:46:38;;;;;;;10.07;4.38;;;12.20;82.80;;;;;;5009037;28;20058;-71
2023/04/29 03:49:03;;;;;;;6.30;3.60;;;12.20;82.80;;;;;;4992394;28;20026;-75
2023/04/29 03:51:29;;;;;;;7.05;3.35;;;12.20;82.80;;;;;;5010488;28;20053;-71
2023/04/29 03:53:56;;;;;;;7.90;4.18;;;12.20;82.80;;;;;;5010099;28;20022;-71
2023/04/29 03:56:24;;;;;;;8.30;3.88;;;12.20;83.30;;;;;;5005544;28;20029;-71
2023/04/29 03:58:52;;;;;;;8.07;4.30;;;12.20;82.70;;;;;;5008041;28;20026;-70
2023/04/29 04:01:18;;;;;;;5.85;3.70;;;12.10;82.80;;;;;;4989417;28;20176;-73
2023/04/29 04:03:44;;;;;;;7.57;3.83;;;12.20;82.70;;;;;;4991817;28;20532;-73
2023/04/29 04:06:10;;;;;;;6.93;3.78;;;12.10;82.70;;;;;;5010852;28;20073;-70
2023/04/29 04:08:36;;;;;;;7.18;3.33;;;12.10;82.70;;;;;;5008305;28;20184;-73
2023/04/29 04:11:02;;;;;;;6.15;4.13;;;12.10;82.70;;;;;;5009912;28;20499;-72
2023/04/29 04:13:30;;;;;;;9.77;3.88;;;12.10;82.80;;;;;;5010198;28;20031;-72
2023/04/29 04:15:56;;;;;;;8.85;3.75;;;12.10;82.80;;;;;;5009528;28;20184;-71
2023/04/29 04:18:22;;;;;;;4.22;2.83;;;12.10;82.80;;;;;;4991829;28;20125;-73
2023/04/29 04:20:48;;;;;;;6.22;3.45;;;12.10;82.80;;;;;;5009114;28;20049;-70
2023/04/29 04:23:13;;;;;;;6.20;4.05;;;12.10;82.70;;;;;;4975502;28;20041;-72
2023/04/29 04:25:48;;;;;;;5.40;3.38;;;12.10;82.60;;;;;;4989870;28;20057;-73
2023/04/29 04:28:14;;;;;;;4.93;2.92;;;12.10;82.60;;;;;;5007179;28;20118;-74
2023/04/29 04:30:41;;;;;;;8.73;4.13;;;12.10;82.60;;;;;;4987251;28;20093;-74
2023/04/29 04:33:07;;;;;;;4.47;3.20;;;12.00;82.60;;;;;;5009360;28;20061;-73
2023/04/29 04:35:33;;;;;;;6.80;3.85;;;12.00;82.50;;;;;;5008136;28;20042;-71
2023/04/29 04:37:59;;;;;;;7.28;4.28;;;12.00;82.60;;;;;;5007590;28;20038;-71
2023/04/29 04:40:24;;;;;;;10.60;4.55;;;12.00;82.50;;;;;;4988132;28;20505;-71
2023/04/29 04:42:50;;;;;;;7.40;4.25;;;12.00;82.40;;;;;;5008268;28;20025;-73
2023/04/29 04:45:16;;;;;;;6.28;3.67;;;12.00;82.10;;;;;;5008135;28;20034;-71
2023/04/29 04:47:42;;;;;;;6.55;3.28;;;12.00;82.20;;;;;;5007975;28;20084;-70
2023/04/29 04:50:08;;;;;;;5.20;3.25;;;12.00;82.20;;;;;;5009388;28;20424;-71
2023/04/29 04:52:34;;;;;;;6.45;2.88;;;12.00;82.10;;;;;;4990817;28;20113;-71
2023/04/29 04:55:00;;;;;;;6.50;3.13;;;12.00;82.00;;;;;;5009440;28;20117;-71
2023/04/29 04:57:26;;;;;;;6.45;3.28;;;12.10;82.00;;;;;;4990984;28;20026;-71
2023/04/29 04:59:51;;;;;;;5.63;2.00;;;12.10;81.90;;;;;;5007951;28;20025;-73
2023/04/29 05:02:17;;;;;;;6.25;3.53;;;12.10;81.80;;;;;;5008397;28;20532;-73
2023/04/29 05:04:43;;;;;;;5.47;3.08;;;12.10;81.80;;;;;;4989400;28;20392;-73
2023/04/29 05:07:09;;;;;;;5.60;3.08;;;12.10;81.70;;;;;;4986365;28;20033;-73
2023/04/29 05:09:35;;;;;;;7.88;3.78;;;12.10;81.70;;;;;;5008634;28;20026;-73
2023/04/29 05:12:01;;;;;;;5.60;3.08;;;12.10;81.80;;;;;;4989725;28;20091;-73
2023/04/29 05:14:27;;;;;;;4.55;2.55;;;12.10;81.80;;;;;;5008539;28;20055;-73
2023/04/29 05:16:57;;;;;;;4.40;2.72;;;12.10;81.70;;;;;;4989875;28;20038;-73
2023/04/29 05:19:22;;;;;;;6.32;3.20;;;12.10;81.60;;;;;;5008847;28;20523;-73
2023/04/29 05:21:48;;;;;;;5.30;3.05;;;12.20;81.70;;;;;;5005393;28;20034;-70
2023/04/29 05:24:14;;;;;;;6.40;2.75;;;12.20;81.50;;;;;;5005115;28;20026;-70
2023/04/29 05:26:42;;;;;;;7.15;3.65;;;12.20;81.40;;;;;;5007555;28;20248;-71
2023/04/29 05:29:07;;;;;;;4.65;3.30;;;12.30;81.40;;;;;;4984788;28;20529;-73
2023/04/29 05:31:33;;;;;;;6.28;3.22;;;12.30;81.40;;;;;;5004390;28;20137;-74
2023/04/29 05:33:59;;;;;;;5.20;3.00;;;12.30;81.30;;;;;;4984789;28;20049;-73
2023/04/29 05:36:26;;;;;;;3.90;2.95;;;12.30;81.80;;;;;;4990496;28;20117;-73
2023/04/29 05:38:51;;;;;;;7.80;3.33;;;12.40;81.20;;;;;;4997093;28;20042;-71
2023/04/29 05:41:17;;;;;;;4.80;3.03;;;12.40;81.10;;;;;;5004038;28;20472;-71
2023/04/29 05:43:43;;;;;;;3.35;2.45;;;12.50;81.20;;;;;;5007549;28;20034;-71
2023/04/29 05:46:08;;;;;;;5.07;2.88;;;12.50;81.10;;;;;;5007080;28;20084;-71
2023/04/29 05:48:35;;;;;;;6.20;3.22;;;12.50;81.00;;;;;;5008434;28;20095;-71
2023/04/29 05:51:01;;;;;;;4.60;2.85;;;12.50;81.00;;;;;;5007073;28;20029;-73
2023/04/29 05:53:27;;;;;;;4.07;2.67;;;12.50;80.90;;;;;;5004228;28;20042;-73
2023/04/29 05:55:52;;;;;;;3.97;3.08;;;12.60;80.90;;;;;;4990583;28;20034;-74
2023/04/29 05:58:18;;;;;;;3.95;2.95;;;12.60;80.50;;;;;;5001279;28;20448;-73
2023/04/29 06:00:44;;;;;;;6.03;3.08;;;12.60;80.60;;;;;;5001169;28;20026;-74
2023/04/29 06:03:10;;;;;;;5.30;3.10;;;12.60;80.60;;;;;;4981215;28;20026;-74
2023/04/29 06:05:36;;;;;;;7.07;3.42;;;12.60;80.40;;;;;;5005954;28;20038;-73
2023/04/29 06:08:03;;;;;;;7.05;3.47;;;12.60;80.30;;;;;;5004043;28;20038;-74
2023/04/29 06:10:29;;;;;;;4.65;3.47;;;12.60;80.40;;;;;;5008488;28;20030;-71
2023/04/29 06:12:54;;;;;;;7.88;3.83;;;12.60;80.20;;;;;;4990137;28;20044;-71
2023/04/29 06:15:21;;;;;;;8.50;3.63;;;12.60;80.20;;;;;;5005508;28;20041;-72
2023/04/29 06:17:47;;;;;;;7.32;3.50;;;12.60;80.30;;;;;;4967029;28;20097;-71
2023/04/29 06:20:13;;;;;;;11.07;4.78;;;12.60;80.20;;;;;;4968601;28;20500;-71
2023/04/29 06:22:39;;;;;;;6.65;3.63;;;12.60;80.10;;;;;;4969273;28;20027;-71
2023/04/29 06:25:05;;;;;;;8.50;3.72;;;12.60;80.20;;;;;;4969880;28;20078;-71
2023/04/29 06:27:31;;;;;;;4.63;2.67;;;12.60;80.20;;;;;;4967324;28;20119;-71
2023/04/29 06:29:56;;;;;;;6.50;3.65;;;12.60;80.10;;;;;;4967480;28;20101;-71
2023/04/29 06:32:22;;;;;;;6.63;3.25;;;12.60;80.10;;;;;;4968376;28;20031;-71
2023/04/29 06:34:48;;;;;;;5.75;3.42;;;12.70;80.10;;;;;;4968698;28;20093;-71
2023/04/29 06:37:14;;;;;;;6.00;3.20;;;12.70;80.10;;;;;;4969384;28;20110;-70
2023/04/29 06:39:40;;;;;;;5.03;3.28;;;12.70;80.00;;;;;;4969517;28;20105;-71
2023/04/29 06:42:06;;;;;;;7.68;3.97;;;12.70;79.80;;;;;;4968213;28;20179;-73
2023/04/29 06:44:32;;;;;;;8.00;4.05;;;12.70;79.70;;;;;;4967999;28;20035;-73
2023/04/29 06:46:58;;;;;;;6.75;3.80;;;12.80;79.70;;;;;;4967704;28;20037;-73
2023/04/29 06:49:24;;;;;;;10.10;4.88;;;12.80;79.60;;;;;;4968794;28;20470;-73
2023/04/29 06:51:49;;;;;;;6.47;4.00;;;12.80;79.30;;;;;;4968606;28;20038;-72
2023/04/29 06:54:15;;;;;;;4.43;3.00;;;12.80;79.20;;;;;;4969472;28;20031;-72
2023/04/29 06:56:41;;;;;;;5.32;3.03;;;12.90;79.30;;;;;;4966869;28;20081;-72
2023/04/29 06:59:07;;;;;;;7.53;3.10;;;13.00;79.40;;;;;;4967853;28;20062;-72
2023/04/29 07:01:33;;;;;;;7.13;4.35;;;13.00;79.20;;;;;;4970349;28;20371;-74
2023/04/29 07:03:59;;;;;;;7.38;3.60;;;13.10;78.90;;;;;;4971074;28;20023;-72
2023/04/29 07:06:24;;;;;;;4.80;2.65;;;13.10;78.80;;;;;;4973676;28;20085;-72
2023/04/29 07:08:51;;;;;;;4.55;3.05;;;13.20;78.80;;;;;;4967866;28;20394;-71
2023/04/29 07:11:16;;;;;;;5.70;3.67;;;13.20;78.40;;;;;;4971353;28;20390;-71
2023/04/29 07:13:42;;;;;;;5.82;3.00;;;13.20;78.40;;;;;;4971229;28;20081;-71
2023/04/29 07:16:19;;;;;;;5.85;3.38;;;13.30;78.40;;;;;;4967216;28;20035;-72
2023/04/29 07:18:45;;;;;;;5.97;3.20;;;13.30;77.60;;;;;;5011269;28;20485;-73
2023/04/29 07:21:10;;;;;;;4.47;2.47;;;13.30;77.50;;;;;;5004444;28;20037;-73
2023/04/29 07:23:36;;;;;;;9.80;3.08;;;13.30;77.60;;;;;;4993344;28;20044;-73
2023/04/29 07:26:15;;;;;;;4.68;2.60;;;13.40;77.60;;;;;;5010681;28;20448;-73
2023/04/29 07:28:42;;;;;;;5.90;3.08;;;13.50;77.60;;;;;;5009106;28;20064;-73
2023/04/29 07:31:08;;;;;;;7.90;3.75;;;13.50;77.30;;;;;;4993763;28;20026;-74
2023/04/29 07:33:34;;;;;;;4.35;2.88;;;13.60;77.10;;;;;;4991078;28;20026;-73
2023/04/29 07:36:01;;;;;;;5.32;3.38;;;13.70;76.90;;;;;;4991140;28;20065;-73
2023/04/29 07:38:28;;;;;;;4.25;2.70;;;13.70;76.70;;;;;;5010624;28;20030;-73
2023/04/29 07:40:54;;;;;;;3.38;2.65;;;13.80;76.40;;;;;;4973144;28;20023;-74
2023/04/29 07:43:20;;;;;;;5.28;2.90;;;13.90;76.20;;;;;;5007061;28;20096;-74
2023/04/29 07:45:46;;;;;;;4.88;2.92;;;13.90;76.00;;;;;;5011593;28;20488;-73
2023/04/29 07:48:12;;;;;;;3.80;2.63;;;14.00;75.80;;;;;;5008742;28;20038;-72
2023/04/29 07:50:37;;;;;;;5.22;2.58;;;14.10;75.50;;;;;;4991842;28;20042;-73
2023/04/29 07:53:03;;;;;;;6.20;3.15;;;14.10;75.30;;;;;;4991663;28;20022;-72
2023/04/29 07:55:30;;;;;;;4.13;2.92;;;14.20;75.20;;;;;;5005701;28;20052;-72
2023/04/29 07:57:59;;;;;;;4.10;2.75;;;14.30;75.20;;;;;;4990069;28;20468;-72
2023/04/29 08:00:25;;;;;;;4.18;2.05;;;14.30;75.10;;;;;;5007976;28;20041;-72
2023/04/29 08:02:55;;;;;;;6.03;2.80;;;14.40;75.00;;;;;;4998980;28;20036;-72
2023/04/29 08:05:22;;;;;;;3.63;2.35;;;14.50;74.70;;;;;;5011198;28;20448;-72
2023/04/29 08:07:48;;;;;;;3.50;2.47;;;14.50;74.20;;;;;;4988165;28;20044;-72
2023/04/29 08:10:18;;;;;;;3.38;2.08;;;14.60;73.90;;;;;;5008272;28;20038;-72
2023/04/29 08:12:50;;;;;;;5.32;2.65;;;14.60;73.80;;;;;;5007084;28;20034;-71
2023/04/29 08:15:17;;;;;;;6.22;3.35;;;14.70;73.50;;;;;;4987523;28;20042;-69
2023/04/29 08:17:43;;;;;;;5.00;2.83;;;14.70;72.40;;;;;;4987303;28;20137;-67
2023/04/29 08:20:09;;;;;;;5.53;3.05;;;14.70;72.50;;;;;;4991694;28;20121;-70
2023/04/29 08:22:35;;;;;;;3.17;2.00;;;14.80;72.30;;;;;;5000527;28;20026;-70
2023/04/29 08:25:02;;;;;;;3.55;2.60;;;14.80;72.30;;;;;;5008557;28;20528;-66
2023/04/29 08:27:28;;;;;;;3.13;2.13;;;14.90;71.90;;;;;;5011041;28;20024;-66
2023/04/29 08:29:54;;;;;;;3.70;2.28;;;15.00;71.90;;;;;;5009632;28;20113;-70
2023/04/29 08:32:20;;;;;;;3.67;2.30;;;15.00;71.40;;;;;;4993074;28;20052;-70
2023/04/29 08:34:46;;;;;;;5.07;1.63;;;15.00;71.20;;;;;;5008095;28;20041;-70
2023/04/29 08:37:15;;;;;;;4.20;2.03;;;15.10;71.30;;;;;;4969403;28;20122;-68
2023/04/29 08:39:45;;;;;;;3.25;1.90;;;15.30;71.20;;;;;;4990281;28;20105;-69
2023/04/29 08:42:11;;;;;;;3.28;1.98;;;15.30;70.50;;;;;;5010166;28;20029;-68
2023/04/29 08:44:39;;;;;;;4.32;2.42;;;15.40;70.60;;;;;;4990299;28;20032;-67
2023/04/29 08:47:06;;;;;;;2.75;1.90;;;15.50;70.30;;;;;;5010999;28;20037;-71
2023/04/29 08:49:32;;;;;;;5.65;1.92;;;15.60;70.40;;;;;;5008777;28;20116;-71
2023/04/29 08:51:59;;;;;;;3.30;1.90;;;15.70;69.90;;;;;;5007165;28;20037;-69
2023/04/29 08:54:25;;;;;;;2.30;2.10;;;15.80;69.70;;;;;;5008655;28;20397;-70
2023/04/29 08:56:52;;;;;;;3.65;2.05;;;15.80;69.60;;;;;;5010182;28;20018;-69
2023/04/29 08:59:19;;;;;;;2.45;2.22;;;15.90;68.60;;;;;;4983677;28;20029;-69
2023/04/29 09:01:50;;;;;;;4.55;2.38;;;16.00;68.70;;;;;;5009187;28;20375;-70
2023/04/29 09:04:24;;;;;;;5.97;2.10;;;16.10;67.80;;;;;;4990644;28;20069;-70
2023/04/29 09:06:51;;;;;;;3.30;1.65;;;16.20;68.20;;;;;;5010212;28;20030;-70
2023/04/29 09:09:18;;;;;;;3.40;2.15;;;16.30;68.40;;;;;;5002919;28;20135;-68
2023/04/29 09:11:44;;;;;;;3.03;1.88;;;16.40;68.00;;;;;;4991987;28;20380;-69
2023/04/29 09:14:09;;;;;;;2.53;1.88;;;16.50;68.00;;;;;;4989851;28;20030;-70
2023/04/29 09:16:37;;;;;;;5.35;2.05;;;16.60;67.70;;;;;;5009389;28;20048;-69
2023/04/29 09:19:02;;;;;;;1.52;1.42;;;16.70;67.10;;;;;;4987913;28;20037;-68
2023/04/29 09:21:32;;;;;;;2.65;1.50;;;16.70;66.80;;;;;;4972956;28;20029;-68
2023/04/29 09:24:02;;;;;;;2.00;1.35;;;16.80;67.10;;;;;;5003198;28;20384;-68
2023/04/29 09:26:42;;;;;;;4.15;1.70;;;16.90;66.20;;;;;;5006770;28;20044;-69
2023/04/29 09:29:10;;;;;;;2.75;1.65;;;17.00;65.90;;;;;;5000307;28;20026;-69
2023/04/29 09:31:40;;;;;;;3.53;2.35;;;17.00;65.60;;;;;;4999934;28;20026;-69
2023/04/29 09:34:07;;;;;;;6.55;2.30;;;17.10;65.50;;;;;;5006274;28;20042;-68
2023/04/29 09:36:44;;;;;;;2.33;2.05;;;17.00;64.90;;;;;;5005546;28;20033;-68
2023/04/29 09:39:16;;;;;;;2.42;1.73;;;17.10;65.50;;;;;;5001137;28;20034;-72
2023/04/29 09:41:53;;;;;;;2.67;1.77;;;17.30;65.10;;;;;;5005932;28;20151;-67
2023/04/29 09:44:24;;;;;;;3.47;1.45;;;17.60;64.10;;;;;;5004736;28;20033;-69
2023/04/29 09:46:57;;;;;;;2.45;1.35;;;17.80;63.90;;;;;;4991113;28;20536;-68
2023/04/29 09:49:24;;;;;;;3.42;1.48;;;18.10;63.80;;;;;;5007508;28;20022;-68
2023/04/29 09:51:58;;;;;;;2.90;1.27;;;18.30;63.10;;;;;;5002912;28;20114;-67
2023/04/29 09:54:29;;;;;;;2.63;1.40;;;18.20;62.60;;;;;;5006467;28;20084;-65
2023/04/29 09:57:01;;;;;;;1.98;1.77;;;18.00;62.50;;;;;;4985730;28;20109;-69
2023/04/29 09:59:27;;;;;;;3.20;1.67;;;17.80;62.50;;;;;;5005300;28;20022;-68
2023/04/29 10:01:57;;;;;;;1.85;1.48;;;17.60;62.30;;;;;;5003893;28;20081;-70
2023/04/29 10:04:25;;;;;;;3.97;1.27;;;17.40;62.50;;;;;;4997115;28;20506;-71
2023/04/29 10:06:53;;;;;;;2.47;1.65;;;17.30;62.90;;;;;;4999228;28;20370;-70
2023/04/29 10:09:20;;;;;;;1.50;1.13;;;17.20;63.30;;;;;;5007091;28;20030;-72
2023/04/29 10:11:50;;;;;;;3.17;1.50;;;17.20;63.40;;;;;;5008031;28;20428;-70
2023/04/29 10:14:20;;;;;;;2.28;1.13;;;17.20;62.80;;;;;;5005725;28;20022;-70
2023/04/29 10:16:47;;;;;;;2.83;1.67;;;17.30;63.20;;;;;;4991109;28;20034;-70
2023/04/29 10:19:36;;;;;;;3.72;1.58;;;17.30;62.70;;;;;;5006509;28;20026;-72
2023/04/29 10:22:15;;;;;;;1.33;1.00;;;17.40;62.90;;;;;;4988858;28;20129;-68
2023/04/29 10:24:42;;;;;;;1.85;1.42;;;17.60;62.90;;;;;;5002468;28;20072;-68
2023/04/29 10:27:11;;;;;;;2.78;1.73;;;17.80;62.50;;;;;;4992325;28;20486;-66
2023/04/29 10:29:38;;;;;;;2.83;1.88;;;18.10;62.10;;;;;;4999355;28;20481;-69
2023/04/29 10:32:08;;;;;;;4.55;1.77;;;18.10;61.10;;;;;;4988798;28;20540;-71
2023/04/29 10:34:36;;;;;;;1.45;1.13;;;18.10;61.30;;;;;;5003844;28;20030;-72
2023/04/29 10:37:02;;;;;;;2.78;1.65;;;18.00;61.40;;;;;;5012226;28;20087;-73
2023/04/29 10:39:58;;;;;;;2.60;1.52;;;17.90;61.00;;;;;;5012895;28;20621;-72
2023/04/29 10:42:50;;;;;;;1.17;1.08;;;17.70;60.60;;;;;;5007508;28;20044;-71
2023/04/29 10:45:19;;;;;;;1.53;1.00;;;17.40;61.30;;;;;;5009916;28;20041;-70
2023/04/29 10:48:07;;;;;;;1.92;0.98;;;17.30;62.00;;;;;;5008455;28;20329;-70
2023/04/29 10:50:48;;;;;;;1.27;0.95;;;17.20;62.20;;;;;;5011450;28;20033;-73
2023/04/29 10:53:15;;;;;;;3.13;1.08;;;17.20;62.40;;;;;;5010877;28;20038;-71
2023/04/29 10:55:41;;;;;;;1.65;0.90;;;17.10;62.60;;;;;;5008609;28;20033;-70
2023/04/29 10:58:33;;;;;;;1.52;0.90;;;17.00;62.80;;;;;;5006567;28;20041;-73
2023/04/29 11:00:59;;;;;;;2.47;0.80;;;17.10;62.90;;;;;;4960143;28;20385;-71
2023/04/29 11:03:44;;;;;;;0.70;0.70;;;17.00;62.70;;;;;;5010045;28;20026;-69
2023/04/29 11:06:10;;;;;;;1.08;0.82;;;17.10;62.50;;;;;;5009180;28;20460;-69
2023/04/29 11:08:39;;;;;;;1.15;0.90;;;17.30;62.50;;;;;;4992304;28;20202;-69
2023/04/29 11:11:05;;;;;;;1.35;1.10;;;17.50;61.80;;;;;;5007121;28;20030;-71
2023/04/29 11:13:36;;;;;;;0.73;0.73;;;17.70;61.30;;;;;;5011223;28;20061;-70
2023/04/29 11:16:10;;;;;;;1.27;0.82;;;17.80;61.10;;;;;;5010657;28;20033;-70
2023/04/29 11:18:55;;;;;;;1.42;0.77;;;18.00;60.90;;;;;;5010057;28;20501;-70
2023/04/29 11:21:21;;;;;;;1.02;0.82;;;18.00;60.70;;;;;;4989789;28;20030;-69
2023/04/29 11:23:50;;;;;;;3.03;1.35;;;18.10;60.50;;;;;;5009236;28;20034;-70
2023/04/29 11:26:19;;;;;;;2.45;1.75;;;18.10;60.20;;;;;;5012154;28;20524;-69
2023/04/29 11:28:45;;;;;;;2.03;1.27;;;18.20;59.50;;;;;;5009657;28;20041;-69
2023/04/29 11:31:11;;;;;;;1.33;1.17;;;18.20;59.20;;;;;;4993391;28;20049;-69
2023/04/29 11:33:37;;;;;;;1.63;0.90;;;18.20;58.90;;;;;;5010037;28;20294;-70
2023/04/29 11:36:03;;;;;;;1.38;0.73;;;18.30;59.30;;;;;;5011342;28;20033;-68
2023/04/29 11:38:29;;;;;;;1.23;0.70;;;18.50;59.50;;;;;;5008515;28;20018;-68
2023/04/29 11:40:56;;;;;;;0.47;0.45;;;18.80;59.30;;;;;;5007277;28;20358;-67
2023/04/29 11:43:23;;;;;;;0.82;0.70;;;19.20;58.10;;;;;;5011166;28;20022;-67
2023/04/29 11:45:50;;;;;;;1.05;0.95;;;19.60;57.30;;;;;;5003885;28;20041;-67
2023/04/29 11:48:25;;;;;;;0.77;0.70;;;19.60;56.30;;;;;;5010912;28;20148;-66
2023/04/29 11:50:55;;;;;;;6.28;1.10;;;19.40;55.40;;;;;;5011523;28;20042;-67
2023/04/29 11:53:24;;;;;;;1.52;0.80;;;19.10;55.60;;;;;;5010120;28;20034;-69
2023/04/29 11:55:52;;;;;;;0.73;0.70;;;18.70;56.70;;;;;;5005432;28;20388;-68
2023/04/29 11:58:20;;;;;;;1.42;0.73;;;18.60;57.60;;;;;;5005520;28;20504;-68
2023/04/29 12:00:50;;;;;;;2.50;0.70;;;18.40;58.00;;;;;;5009670;28;20026;-68
2023/04/29 12:03:18;;;;;;;1.05;0.82;;;18.30;58.40;;;;;;5009703;28;20543;-68
2023/04/29 12:05:46;;;;;;;1.10;0.70;;;18.20;58.80;;;;;;5009174;28;20625;-68
2023/04/29 12:08:13;;;;;;;1.65;0.75;;;18.10;58.80;;;;;;5004152;28;20390;-68
2023/04/29 12:10:38;;;;;;;0.95;0.95;;;18.00;59.10;;;;;;5005036;28;20026;-67
2023/04/29 12:13:04;;;;;;;0.75;0.60;;;18.00;58.70;;;;;;4972762;28;20049;-68
2023/04/29 12:15:31;;;;;;;1.63;1.02;;;18.20;58.80;;;;;;5006669;28;20033;-67
2023/04/29 12:17:59;;;;;;;1.13;1.00;;;18.60;58.10;;;;;;5007916;28;20048;-67
2023/04/29 12:20:25;;;;;;;1.88;1.13;;;19.10;55.50;;;;;;5008709;28;20054;-69
2023/04/29 12:22:52;;;;;;;1.35;1.15;;;19.10;54.90;;;;;;5009933;28;20033;-69
2023/04/29 12:25:17;;;;;;;1.40;0.90;;;19.10;54.80;;;;;;5008622;28;20104;-68
2023/04/29 12:27:43;;;;;;;0.80;0.57;;;19.00;55.00;;;;;;5006329;28;20070;-68
2023/04/29 12:30:10;;;;;;;2.58;1.20;;;18.90;55.30;;;;;;5008890;28;20112;-68
2023/04/29 12:32:35;;;;;;;3.83;1.00;;;18.80;55.80;;;;;;5007831;28;20025;-69
2023/04/29 12:35:01;;;;;;;1.98;0.90;;;18.70;55.70;;;;;;5002357;28;20034;-68
2023/04/29 12:37:27;;;;;;;1.15;1.05;;;18.60;56.10;;;;;;5010486;28;20663;-67
2023/04/29 12:39:56;;;;;;;0.95;0.68;;;18.50;56.40;;;;;;5005593;28;20620;-68
2023/04/29 12:42:21;;;;;;;1.70;0.80;;;18.50;56.50;;;;;;4992064;28;20022;-69
2023/04/29 12:44:47;;;;;;;4.88;1.25;;;18.40;56.40;;;;;;5007920;28;20044;-69
2023/04/29 12:47:14;;;;;;;2.65;0.80;;;18.50;56.40;;;;;;4991297;28;20038;-69
2023/04/29 12:49:42;;;;;;;4.22;0.82;;;18.60;56.70;;;;;;5011220;28;20135;-68